Time;durP1;ratioP1;P1;durP2;ratioP2;P2;SDS_P1;SDS_P2;PMS_P1;PMS_P2;Temp;Humidity;BMP_temperature;BMP_pressure;BME280_temperature;BME280_humidity;BME280_pressure;Samples;Min_cycle;Max_cycle;Signal;HPM_P1;HPM_P2
2022/10/13 05:59:25;;;;;;;18.17;7.35;;;;;;;4.58;87.72;101152.95;1740075;81;21100;-45
2022/10/13 06:01:52;;;;;;;15.30;8.25;;;;;;;4.74;87.77;101150.98;1723230;82;21027;-38
2022/10/13 06:04:22;;;;;;;17.37;7.87;;;;;;;4.86;87.87;101144.07;1756217;82;21003;-44
2022/10/13 06:06:50;;;;;;;16.65;8.13;;;;;;;4.96;87.79;101144.88;1698150;82;21091;-38
2022/10/13 06:09:16;;;;;;;19.10;8.63;;;;;;;5.11;87.79;101143.27;1757287;80;21532;-45
2022/10/13 06:11:43;;;;;;;18.60;9.18;;;;;;;5.23;87.75;101146.70;1771920;80;21089;-45
2022/10/13 06:14:12;;;;;;;16.73;10.03;;;;;;;5.36;87.71;101152.78;1753846;80;21534;-44
2022/10/13 06:16:39;;;;;;;15.98;8.63;;;;;;;5.49;87.82;101144.57;1756026;80;21567;-39
2022/10/13 06:19:07;;;;;;;14.83;8.90;;;;;;;5.63;87.76;101143.77;1746769;81;21044;-38
2022/10/13 06:21:34;;;;;;;17.48;8.25;;;;;;;5.76;87.81;101144.63;1716050;82;21100;-38
2022/10/13 06:24:01;;;;;;;19.95;7.62;;;;;;;5.85;88.10;101150.52;1715252;82;20962;-38
2022/10/13 06:26:28;;;;;;;19.73;8.00;;;;;;;5.95;88.68;101143.53;1750976;81;21175;-44
2022/10/13 06:28:55;;;;;;;20.30;9.48;;;;;;;6.08;89.24;101140.90;1745767;80;21408;-45
2022/10/13 06:31:22;;;;;;;22.10;9.28;;;;;;;6.20;89.51;101138.68;1734626;82;21047;-39
2022/10/13 06:33:49;;;;;;;18.50;8.15;;;;;;;6.35;89.95;101136.98;1743339;81;21535;-37
2022/10/13 06:36:15;;;;;;;14.68;8.58;;;;;;;6.52;90.35;101134.47;1757109;81;21630;-37
2022/10/13 06:38:42;;;;;;;16.40;8.65;;;;;;;6.73;90.55;101133.35;1751276;80;21534;-37
2022/10/13 06:41:08;;;;;;;16.73;8.08;;;;;;;6.93;90.42;101133.48;1729602;82;21017;-37
2022/10/13 06:43:36;;;;;;;18.45;8.73;;;;;;;7.12;90.30;101129.66;1741500;81;21009;-37
2022/10/13 06:46:03;;;;;;;19.80;8.48;;;;;;;7.30;89.79;101131.45;1732528;81;21084;-38
2022/10/13 06:48:30;;;;;;;18.90;8.53;;;;;;;7.45;89.38;101126.66;1725958;82;21056;-44
2022/10/13 06:51:04;;;;;;;17.75;9.28;;;;;;;7.60;89.13;101127.91;1736407;82;21087;-44
2022/10/13 06:53:30;;;;;;;18.02;8.30;;;;;;;7.77;89.01;101126.59;1742661;80;21066;-44
2022/10/13 06:56:01;;;;;;;12.88;7.22;;;;;;;7.98;88.65;101123.18;1742644;82;21580;-44
2022/10/13 06:58:27;;;;;;;18.62;8.18;;;;;;;8.18;88.45;101129.30;1729149;82;21049;-37
2022/10/13 07:00:54;;;;;;;19.32;9.58;;;;;;;8.37;88.17;101129.31;1765421;81;21062;-38
2022/10/13 07:03:21;;;;;;;16.95;8.53;;;;;;;8.53;87.60;101120.98;1754593;82;21034;-44
2022/10/13 07:05:48;;;;;;;18.77;8.75;;;;;;;8.69;87.42;101124.34;1720154;82;21128;-38
2022/10/13 07:08:14;;;;;;;16.48;7.83;;;;;;;8.86;87.29;101122.51;1715204;82;21081;-45
2022/10/13 07:10:42;;;;;;;18.40;7.00;;;;;;;9.03;86.68;101122.42;1758069;81;21097;-45
2022/10/13 07:13:09;;;;;;;22.45;7.45;;;;;;;9.19;86.22;101115.77;1766731;81;21085;-45
2022/10/13 07:15:39;;;;;;;17.98;6.20;;;;;;;9.35;85.81;101111.28;1763706;81;21048;-38
2022/10/13 07:18:06;;;;;;;14.25;6.97;;;;;;;9.51;85.19;101112.01;1757309;81;21020;-45
2022/10/13 07:20:34;;;;;;;13.25;5.90;;;;;;;9.67;84.68;101113.55;1757324;81;21099;-38
2022/10/13 07:23:00;;;;;;;18.45;7.50;;;;;;;9.81;83.91;101111.63;1757320;81;21076;-38
2022/10/13 07:25:26;;;;;;;23.35;8.48;;;;;;;9.96;84.08;101113.59;1753996;81;20973;-38
2022/10/13 07:27:53;;;;;;;12.30;6.28;;;;;;;10.13;83.81;101111.23;1757661;81;21503;-45
2022/10/13 07:30:19;;;;;;;16.02;6.80;;;;;;;10.32;83.04;101108.47;1754899;81;21515;-45
2022/10/13 07:32:47;;;;;;;19.17;6.58;;;;;;;10.51;82.17;101105.27;1753585;81;21043;-38
2022/10/13 07:35:14;;;;;;;13.58;7.10;;;;;;;10.73;81.49;101108.17;1742304;82;21031;-45
2022/10/13 07:37:40;;;;;;;38.38;14.28;;;;;;;10.92;80.62;101104.46;1742387;82;21043;-45
2022/10/13 07:40:08;;;;;;;24.82;9.30;;;;;;;11.09;79.40;101105.09;1742642;81;21043;-38
2022/10/13 07:42:35;;;;;;;28.30;11.93;;;;;;;11.23;77.58;101104.78;1742642;81;21051;-39
2022/10/13 07:45:02;;;;;;;23.42;9.28;;;;;;;11.34;76.12;101099.22;1743857;82;20975;-45
2022/10/13 07:47:29;;;;;;;10.82;5.03;;;;;;;11.45;74.79;101097.58;1755564;81;21569;-38
2022/10/13 07:49:55;;;;;;;13.15;4.53;;;;;;;11.58;72.96;101100.30;1744740;82;21042;-45
2022/10/13 07:52:23;;;;;;;16.87;5.85;;;;;;;11.65;72.53;101100.39;1738631;81;21595;-38
2022/10/13 07:54:50;;;;;;;9.90;3.40;;;;;;;11.76;72.41;101095.64;1739937;81;20954;-45
2022/10/13 07:57:17;;;;;;;9.48;2.65;;;;;;;11.83;69.94;101093.54;1742706;81;21116;-38
2022/10/13 07:59:43;;;;;;;7.37;3.05;;;;;;;11.91;70.04;101091.88;1749563;81;20993;-45
2022/10/13 08:02:12;;;;;;;6.67;3.15;;;;;;;12.00;69.87;101091.92;1755210;81;21141;-41
2022/10/13 08:04:39;;;;;;;6.47;3.00;;;;;;;12.14;68.82;101093.34;1753751;81;21024;-44
2022/10/13 08:07:07;;;;;;;7.85;3.30;;;;;;;12.24;67.21;101088.59;1751917;80;21483;-45
2022/10/13 08:09:33;;;;;;;10.90;2.98;;;;;;;12.27;66.08;101090.34;1782505;80;21531;-39
2022/10/13 08:12:01;;;;;;;15.48;4.75;;;;;;;12.31;66.42;101088.19;1782358;80;21535;-46
2022/10/13 08:14:30;;;;;;;13.72;5.67;;;;;;;12.41;65.89;101083.44;1779289;80;20953;-39
2022/10/13 08:16:57;;;;;;;19.77;6.78;;;;;;;12.54;65.24;101087.00;1772319;81;21457;-39
2022/10/13 08:19:25;;;;;;;11.00;3.75;;;;;;;12.61;64.41;101091.39;1761569;81;21018;-45
2022/10/13 08:21:54;;;;;;;7.92;2.65;;;;;;;12.67;62.00;101095.36;1777854;80;21578;-46
2022/10/13 08:24:25;;;;;;;8.75;2.30;;;;;;;12.66;62.06;101087.92;1744187;80;20995;-46
2022/10/13 08:26:49;;;;;;;9.38;2.95;;;;;;;12.73;61.70;101088.81;1749625;81;21176;-39
2022/10/13 08:29:18;;;;;;;9.80;3.58;;;;;;;12.79;61.77;101088.84;1775010;80;21406;-38
2022/10/13 08:31:44;;;;;;;12.70;3.05;;;;;;;12.87;62.12;101089.76;1752777;80;21409;-39
2022/10/13 08:34:11;;;;;;;12.30;3.40;;;;;;;12.97;61.84;101080.13;1750086;81;21097;-39
2022/10/13 08:36:38;;;;;;;14.85;5.20;;;;;;;13.12;61.96;101083.25;1755821;81;21134;-39
2022/10/13 08:39:06;;;;;;;28.10;13.93;;;;;;;13.18;60.41;101085.45;1755643;81;21423;-46
2022/10/13 08:41:39;;;;;;;30.08;13.95;;;;;;;13.14;60.16;101082.80;1755227;82;21051;-46
2022/10/13 08:44:33;;;;;;;16.30;3.30;;;;;;;13.15;60.60;101077.55;1755366;81;21030;-36
2022/10/13 08:47:21;;;;;;;13.65;5.20;;;;;;;13.17;59.34;101078.44;1755508;82;21031;-37
2022/10/13 08:49:48;;;;;;;6.20;2.02;;;;;;;13.15;59.49;101074.91;1755568;81;20998;-37
2022/10/13 08:52:25;;;;;;;9.50;2.33;;;;;;;13.22;58.31;101079.37;1744301;82;21692;-44
2022/10/13 08:54:52;;;;;;;13.35;5.33;;;;;;;13.27;58.14;101084.16;1755380;81;21046;-39
2022/10/13 08:57:19;;;;;;;14.95;9.70;;;;;;;13.25;58.65;101087.23;1755743;82;21051;-37
2022/10/13 08:59:47;;;;;;;15.85;9.93;;;;;;;13.30;59.09;101087.25;1745223;81;21044;-37
2022/10/13 09:02:25;;;;;;;18.23;6.17;;;;;;;13.28;58.44;101083.31;1742162;81;21094;-43
2022/10/13 09:04:52;;;;;;;11.88;3.50;;;;;;;13.25;58.22;101082.42;1742534;82;21031;-47
2022/10/13 09:07:31;;;;;;;15.63;4.12;;;;;;;13.23;58.13;101072.36;1742061;82;21091;-46
2022/10/13 09:09:59;;;;;;;7.53;2.60;;;;;;;13.27;57.60;101080.66;1707072;81;20983;-47
2022/10/13 09:12:27;;;;;;;10.05;2.87;;;;;;;13.28;57.06;101076.75;1760968;81;21064;-47
2022/10/13 09:15:04;;;;;;;20.68;9.18;;;;;;;13.34;57.03;101082.45;1748209;81;21451;-39
2022/10/13 09:17:32;;;;;;;14.18;5.85;;;;;;;13.33;56.66;101085.92;1742952;80;21039;-38
2022/10/13 09:20:19;;;;;;;7.35;2.75;;;;;;;13.26;56.45;101082.41;1742010;82;21343;-46
2022/10/13 09:23:20;;;;;;;9.20;2.90;;;;;;;13.27;55.75;101078.03;1742593;81;21059;-39
2022/10/13 09:25:49;;;;;;;8.40;3.42;;;;;;;13.33;56.13;101075.85;1742478;82;21129;-39
2022/10/13 09:28:21;;;;;;;5.87;2.22;;;;;;;13.43;55.92;101069.30;1742091;82;21043;-47
2022/10/13 09:30:48;;;;;;;11.85;3.85;;;;;;;13.50;55.44;101067.54;1742480;82;21102;-38
2022/10/13 09:33:21;;;;;;;10.03;4.47;;;;;;;13.55;55.39;101068.42;1729527;82;21137;-46
2022/10/13 09:35:56;;;;;;;25.55;11.53;;;;;;;13.58;54.72;101065.80;1742395;81;21590;-38
2022/10/13 09:38:24;;;;;;;6.53;2.02;;;;;;;13.56;54.55;101068.41;1742428;82;21098;-47
2022/10/13 09:41:06;;;;;;;6.45;2.08;;;;;;;13.47;52.25;101059.23;1742171;81;21749;-46
2022/10/13 09:43:48;;;;;;;3.90;1.10;;;;;;;13.39;52.42;101062.27;1733313;81;21059;-40
2022/10/13 09:46:40;;;;;;;5.35;1.80;;;;;;;13.41;53.49;101055.28;1741644;81;21086;-40
2022/10/13 09:49:33;;;;;;;7.58;2.20;;;;;;;13.55;53.56;101056.59;1741599;81;21663;-39
2022/10/13 09:52:15;;;;;;;3.22;1.62;;;;;;;13.73;53.08;101050.44;1745080;82;21674;-45
2022/10/13 09:54:50;;;;;;;5.62;2.05;;;;;;;13.99;51.93;101047.79;1761332;81;21028;-45
2022/10/13 09:57:34;;;;;;;8.50;3.20;;;;;;;14.22;51.36;101040.70;1775713;81;21643;-39
2022/10/13 10:00:18;;;;;;;23.35;8.05;;;;;;;14.35;51.18;101042.41;1767267;80;20977;-46
2022/10/13 10:03:07;;;;;;;9.50;3.83;;;;;;;14.34;50.76;101043.73;1757750;81;21084;-38
2022/10/13 10:05:50;;;;;;;11.00;2.62;;;;;;;14.19;49.27;101047.73;1746015;81;21035;-45
2022/10/13 10:08:45;;;;;;;8.38;2.70;;;;;;;13.98;50.76;101042.97;1734772;81;21966;-46
2022/10/13 10:11:18;;;;;;;7.87;2.08;;;;;;;13.82;51.63;101043.87;1741994;81;21044;-38
2022/10/13 10:13:48;;;;;;;6.58;2.15;;;;;;;13.76;51.63;101039.94;1720502;81;21005;-45
2022/10/13 10:16:20;;;;;;;10.95;1.90;;;;;;;13.72;51.06;101042.99;1739972;81;21088;-45
2022/10/13 10:18:54;;;;;;;7.20;2.47;;;;;;;13.74;51.25;101037.31;1752064;81;21078;-45
2022/10/13 10:21:32;;;;;;;5.10;1.50;;;;;;;14.11;50.87;101034.16;1731877;81;21025;-45
2022/10/13 10:24:19;;;;;;;5.45;1.47;;;;;;;14.76;46.50;101036.11;1680581;85;21056;-39
2022/10/13 10:26:54;;;;;;;3.50;1.42;;;;;;;15.41;43.38;101022.91;1689286;84;21082;-40
2022/10/13 10:29:44;;;;;;;6.70;1.75;;;;;;;15.68;42.60;101027.56;1673990;85;21040;-38
2022/10/13 10:32:36;;;;;;;2.10;0.93;;;;;;;15.68;42.30;101027.56;1652660;86;21559;-39
2022/10/13 10:35:38;;;;;;;5.83;1.85;;;;;;;15.40;40.47;101021.62;1652875;86;21686;-45
2022/10/13 10:38:52;;;;;;;5.67;2.37;;;;;;;15.11;43.00;101025.35;1652764;86;21074;-38
2022/10/13 10:41:53;;;;;;;6.45;1.72;;;;;;;14.83;44.43;101019.38;1652538;86;21071;-38
2022/10/13 10:44:30;;;;;;;4.22;1.50;;;;;;;14.69;45.10;101022.55;1652290;86;21082;-37
2022/10/13 10:47:01;;;;;;;4.95;1.77;;;;;;;14.71;44.58;101018.14;1652526;86;21070;-38
2022/10/13 10:49:35;;;;;;;5.42;1.65;;;;;;;14.68;45.13;101012.91;1633673;86;21589;-37
2022/10/13 10:52:12;;;;;;;4.70;1.62;;;;;;;14.65;45.55;101010.27;1658547;86;21081;-44
2022/10/13 10:54:52;;;;;;;5.85;1.60;;;;;;;14.64;45.25;101005.89;1653872;86;21087;-38
2022/10/13 10:57:24;;;;;;;4.40;1.40;;;;;;;14.52;44.75;101013.41;1652665;86;21614;-44
2022/10/13 11:00:13;;;;;;;7.67;1.57;;;;;;;14.37;44.75;101008.17;1649533;86;21079;-37
2022/10/13 11:02:49;;;;;;;16.30;8.28;;;;;;;14.23;45.48;101008.69;1646375;86;21540;-44
2022/10/13 11:05:16;;;;;;;61.10;28.20;;;;;;;14.11;46.24;101005.22;1649037;87;21031;-38
2022/10/13 11:07:52;;;;;;;9.88;3.83;;;;;;;14.02;46.27;101002.59;1646499;86;21107;-37
2022/10/13 11:10:21;;;;;;;7.53;2.12;;;;;;;13.92;46.36;101006.16;1682902;85;21067;-39
2022/10/13 11:12:58;;;;;;;5.40;2.08;;;;;;;13.83;46.53;101004.41;1701047;84;21609;-44
2022/10/13 11:15:29;;;;;;;5.05;2.17;;;;;;;13.77;47.11;101000.92;1687022;84;21522;-38
2022/10/13 11:17:57;;;;;;;5.55;2.85;;;;;;;13.72;47.22;100998.29;1675475;84;20983;-45
2022/10/13 11:20:36;;;;;;;3.42;1.82;;;;;;;13.70;46.90;100995.24;1675144;84;21090;-44
2022/10/13 11:23:08;;;;;;;3.37;1.70;;;;;;;13.72;46.84;100995.66;1693140;84;20998;-38
2022/10/13 11:25:43;;;;;;;6.00;1.57;;;;;;;13.90;47.08;100993.88;1676083;84;21049;-44
2022/10/13 11:28:26;;;;;;;6.95;1.52;;;;;;;14.16;47.18;100993.36;1676607;84;21128;-38
2022/10/13 11:30:56;;;;;;;;;;;;;;;14.44;45.05;100995.86;1692338;85;21043;-39
2022/10/13 11:33:46;;;;;;;4.00;1.60;;;;;;;14.58;44.80;101005.93;1671125;84;20122;-40
2022/10/13 11:36:51;;;;;;;4.80;1.80;;;;;;;14.57;44.10;101001.11;1677604;84;21058;-41
2022/10/13 11:39:48;;;;;;;7.70;2.27;;;;;;;14.47;45.29;100999.84;1687628;84;21033;-44
2022/10/13 11:42:36;;;;;;;5.25;1.70;;;;;;;14.32;45.66;101001.64;1681714;84;21104;-37
2022/10/13 11:45:31;;;;;;;5.10;1.87;;;;;;;14.23;46.30;101001.66;1693836;84;21001;-44
2022/10/13 11:48:21;;;;;;;5.62;2.17;;;;;;;14.19;46.69;101005.18;1663684;86;21610;-44
2022/10/13 11:51:19;;;;;;;8.00;2.02;;;;;;;14.18;46.81;101003.88;1631261;87;21964;-44
2022/10/13 11:53:53;;;;;;;4.80;1.70;;;;;;;14.16;46.54;100999.94;1645375;86;21031;-44
2022/10/13 11:56:23;;;;;;;5.80;1.90;;;;;;;14.10;46.50;100996.02;1665128;85;21482;-44
2022/10/13 11:58:50;;;;;;;2.83;1.90;;;;;;;14.08;46.73;100989.42;1663929;85;21075;-45
2022/10/13 12:01:17;;;;;;;5.42;1.85;;;;;;;14.09;47.05;100992.95;1664709;86;21152;-40
2022/10/13 12:03:45;;;;;;;6.80;1.65;;;;;;;14.10;47.91;100990.31;1664585;85;21052;-38
2022/10/13 12:06:33;;;;;;;7.45;1.80;;;;;;;14.10;47.09;100994.27;1664390;86;21055;-37
2022/10/13 12:09:06;;;;;;;6.45;2.08;;;;;;;14.08;47.24;100992.50;1664128;86;21563;-44
2022/10/13 12:11:36;;;;;;;;;;;;;;;14.02;47.78;100989.44;1664444;86;21477;-37
2022/10/13 12:14:08;;;;;;;7.60;1.82;;;;;;;13.98;48.26;100990.80;1665086;86;20105;-37
2022/10/13 12:16:35;;;;;;;3.60;1.67;;;;;;;13.93;48.90;100992.13;1664709;86;21660;-45
2022/10/13 12:19:23;;;;;;;6.28;2.22;;;;;;;13.94;49.52;100996.94;1665392;86;21720;-46
